createdAt,value
2023-02-13T00:03:25.080Z,95291.91
2023-02-13T00:18:27.033Z,95296.66
2023-02-13T00:33:28.608Z,95309.19
2023-02-13T00:48:30.998Z,95310.66
2023-02-13T01:03:32.773Z,95318.19
2023-02-13T01:18:34.632Z,95317.09
2023-02-13T01:33:36.371Z,95323.53
2023-02-13T01:48:37.909Z,95335.63
2023-02-13T02:03:45.971Z,95348.16
2023-02-13T02:18:47.586Z,95336.41
2023-02-13T02:34:02.827Z,95332.19
2023-02-13T02:49:24.795Z,95346.28
2023-02-13T03:04:47.099Z,95367.56
2023-02-13T03:20:07.207Z,95361.59
2023-02-13T03:35:39.553Z,95364.13
2023-02-13T03:50:43.429Z,95364.91
2023-02-13T04:05:48.161Z,95350.81
2023-02-13T04:20:49.726Z,95366.81
2023-02-13T04:35:51.313Z,95371.34
2023-02-13T04:50:52.871Z,95356.94
2023-02-13T05:05:54.507Z,95380.44
2023-02-13T05:21:15.310Z,95378.13
2023-02-13T05:36:16.860Z,95393.44
2023-02-13T05:51:19.207Z,95400.88
2023-02-13T06:06:21.534Z,95418.06
2023-02-13T06:21:23.085Z,95419.28
2023-02-13T06:36:24.587Z,95426.16
2023-02-13T06:51:26.142Z,95437.72
2023-02-13T07:06:27.681Z,95440.81
2023-02-13T07:21:29.252Z,95432.19
2023-02-13T07:36:30.783Z,95442.59
2023-02-13T07:51:32.593Z,95442.59
2023-02-13T08:06:34.183Z,95442.59
2023-02-13T08:21:38.264Z,95443.72
2023-02-13T08:36:39.837Z,95439.50
2023-02-13T08:51:41.289Z,95444.16
2023-02-13T09:06:42.869Z,95442.38
2023-02-13T09:21:44.682Z,95440.94
2023-02-13T09:36:53.230Z,95425.16
2023-02-13T09:51:57.408Z,95412.16
2023-02-13T10:07:09.856Z,95397.81
2023-02-13T10:22:14.784Z,95365.06
2023-02-13T10:37:20.552Z,95342.84
2023-02-13T10:52:42.267Z,95330.19
2023-02-13T11:07:46.836Z,95314.72
2023-02-13T13:18:19.997Z,95152.66
2023-02-13T13:33:22.726Z,95137.09
2023-02-13T13:48:38.654Z,95136.31
2023-02-13T14:03:40.382Z,95127.88
2023-02-13T14:18:46.809Z,95123.31
2023-02-13T14:34:08.549Z,95110.34
2023-02-13T14:49:17.218Z,95108.44
2023-02-13T15:04:30.120Z,95097.34
2023-02-13T15:19:32.422Z,95105.34
2023-02-13T15:34:36.683Z,95108.78
2023-02-13T15:49:39.902Z,95124.38
2023-02-13T16:04:41.954Z,95117.47
2023-02-13T16:19:55.013Z,95121.78
2023-02-13T16:34:56.646Z,95140.03
2023-02-13T16:49:58.299Z,95139.06
2023-02-13T17:05:09.136Z,95122.22
2023-02-13T17:20:17.322Z,95131.97
2023-02-13T17:35:19.048Z,95131.97
2023-02-13T17:50:21.177Z,95125.59
2023-02-13T18:05:23.101Z,95109.53
2023-02-13T18:20:24.855Z,95100.06
2023-02-13T18:35:26.659Z,95101.88
2023-02-13T18:50:28.222Z,95097.91
2023-02-13T19:05:29.800Z,95117.69
2023-02-13T19:20:31.344Z,95111.56
2023-02-13T19:35:32.864Z,95111.50
2023-02-13T19:50:34.466Z,95117.50
2023-02-13T20:05:39.652Z,95093.09
2023-02-13T20:20:41.320Z,95089.22
2023-02-13T20:35:42.945Z,95075.56
2023-02-13T20:50:44.478Z,95061.09
2023-02-13T21:05:45.996Z,95065.31
2023-02-13T21:20:48.435Z,95040.47
2023-02-13T21:35:50.982Z,95041.59
2023-02-13T21:50:52.551Z,95023.63
2023-02-13T22:05:54.169Z,95021.31
2023-02-13T22:20:56.036Z,95016.75
2023-02-13T22:35:57.763Z,94999.22
2023-02-13T22:51:02.821Z,94992.34
2023-02-13T23:06:05.174Z,94994.66
2023-02-13T23:21:07.602Z,94982.13
2023-02-13T23:36:09.179Z,94977.91
2023-02-13T23:51:10.640Z,94984.28
